createdAt,value
2023-03-28T00:02:04.484Z,78.90
2023-03-28T00:04:30.860Z,78.90
2023-03-28T00:06:57.323Z,79.00
2023-03-28T00:09:23.704Z,79.00
2023-03-28T00:11:50.153Z,78.90
2023-03-28T00:14:16.601Z,79.00
2023-03-28T00:16:42.985Z,79.00
2023-03-28T00:19:09.356Z,79.10
2023-03-28T00:21:35.743Z,79.10
2023-03-28T00:24:02.178Z,79.20
2023-03-28T00:26:28.638Z,79.20
2023-03-28T00:28:55.018Z,79.10
2023-03-28T00:31:21.497Z,79.10
2023-03-28T00:33:48.043Z,79.10
2023-03-28T00:36:14.547Z,79.10
2023-03-28T00:38:40.948Z,79.20
2023-03-28T00:41:07.309Z,79.20
2023-03-28T00:43:33.816Z,79.20
2023-03-28T00:46:09.144Z,79.30
2023-03-28T00:48:36.021Z,79.30
2023-03-28T00:51:02.397Z,79.30
2023-03-28T00:53:28.769Z,79.30
2023-03-28T00:55:55.207Z,79.30
2023-03-28T00:58:21.610Z,79.30
2023-03-28T01:00:48.000Z,79.30
2023-03-28T01:03:14.545Z,79.30
2023-03-28T01:05:41.038Z,79.40
2023-03-28T01:08:07.430Z,79.40
2023-03-28T01:10:33.856Z,80.10
2023-03-28T01:13:00.285Z,79.50
2023-03-28T01:15:26.799Z,79.50
2023-03-28T01:17:53.533Z,79.60
2023-03-28T01:20:19.916Z,79.60
2023-03-28T01:22:56.490Z,79.50
2023-03-28T01:25:23.767Z,79.50
2023-03-28T01:27:50.194Z,79.40
2023-03-28T01:30:16.642Z,79.40
2023-03-28T01:32:43.273Z,79.40
2023-03-28T01:35:09.802Z,79.40
2023-03-28T01:37:36.199Z,79.40
2023-03-28T01:40:02.663Z,79.60
2023-03-28T01:42:29.099Z,79.80
2023-03-28T01:44:55.491Z,80.20
2023-03-28T01:47:21.947Z,80.80
2023-03-28T01:49:48.397Z,81.20
2023-03-28T01:52:14.834Z,81.20
2023-03-28T01:54:41.286Z,81.20
2023-03-28T01:57:07.743Z,81.10
2023-03-28T01:59:34.178Z,80.90
2023-03-28T02:02:00.658Z,80.70
2023-03-28T02:04:27.161Z,80.40
2023-03-28T02:06:53.549Z,80.30
2023-03-28T02:09:19.941Z,80.20
2023-03-28T02:11:46.327Z,80.10
2023-03-28T02:14:12.703Z,80.10
2023-03-28T02:16:39.125Z,80.00
2023-03-28T02:19:05.509Z,80.00
2023-03-28T02:21:31.873Z,80.10
2023-03-28T02:23:58.341Z,80.20
2023-03-28T02:26:24.767Z,80.30
2023-03-28T02:28:51.148Z,80.30
2023-03-28T02:31:17.567Z,80.40
2023-03-28T02:33:44.037Z,80.40
2023-03-28T02:36:10.464Z,80.40
2023-03-28T02:38:36.866Z,80.40
2023-03-28T02:41:03.260Z,80.40
2023-03-28T02:43:29.657Z,80.60
2023-03-28T02:45:56.030Z,80.60
2023-03-28T02:48:22.450Z,81.30
2023-03-28T02:50:48.896Z,80.60
2023-03-28T02:53:15.323Z,80.60
2023-03-28T02:55:41.792Z,80.90
2023-03-28T02:58:08.302Z,80.90
2023-03-28T03:00:34.781Z,80.80
2023-03-28T03:03:01.259Z,80.70
2023-03-28T03:05:27.684Z,80.70
2023-03-28T03:07:54.084Z,80.70
2023-03-28T03:10:20.493Z,80.70
2023-03-28T03:12:46.865Z,80.70
2023-03-28T03:15:13.297Z,80.60
2023-03-28T03:17:39.738Z,80.60
2023-03-28T03:20:06.184Z,80.60
2023-03-28T03:22:32.626Z,80.50
2023-03-28T03:24:59.099Z,80.60
2023-03-28T03:27:25.564Z,80.60
2023-03-28T03:29:53.080Z,80.60
2023-03-28T03:32:19.544Z,80.60
2023-03-28T03:34:45.961Z,80.70
2023-03-28T03:37:12.380Z,80.70
2023-03-28T03:39:38.814Z,80.70
2023-03-28T03:42:05.207Z,80.70
2023-03-28T03:44:31.643Z,80.70
2023-03-28T03:46:58.065Z,80.80
2023-03-28T03:49:24.504Z,80.80
2023-03-28T03:51:50.910Z,80.80
2023-03-28T03:54:17.337Z,80.80
2023-03-28T03:56:43.835Z,80.90
2023-03-28T03:59:10.341Z,80.90
2023-03-28T04:01:36.742Z,80.90
2023-03-28T04:04:03.379Z,81.00
2023-03-28T04:06:29.799Z,81.10
2023-03-28T04:08:56.201Z,81.20
2023-03-28T04:11:22.568Z,81.10
2023-03-28T04:13:48.976Z,81.10
2023-03-28T04:16:15.439Z,81.10
2023-03-28T04:18:41.843Z,81.10
2023-03-28T04:21:08.274Z,81.20
2023-03-28T04:23:35.740Z,81.20
2023-03-28T04:26:02.430Z,81.10
2023-03-28T04:28:28.989Z,81.10
2023-03-28T04:30:55.434Z,81.10
2023-03-28T04:33:21.816Z,81.10
2023-03-28T04:35:48.350Z,81.00
2023-03-28T04:38:21.421Z,81.00
2023-03-28T04:40:47.974Z,81.10
2023-03-28T04:43:14.595Z,81.20
2023-03-28T04:45:41.081Z,81.10
2023-03-28T04:48:07.561Z,81.20
2023-03-28T04:50:35.730Z,81.20
2023-03-28T04:53:02.364Z,81.20
2023-03-28T04:55:28.764Z,81.20
2023-03-28T04:57:55.308Z,81.20
2023-03-28T05:00:21.717Z,81.10
2023-03-28T05:02:48.160Z,81.70
2023-03-28T05:05:14.605Z,81.10
2023-03-28T05:07:41.055Z,81.10
2023-03-28T05:10:07.495Z,81.10
2023-03-28T05:12:33.912Z,81.10
2023-03-28T05:15:00.300Z,81.00
2023-03-28T05:17:26.724Z,81.00
2023-03-28T05:19:53.189Z,81.00
2023-03-28T05:22:19.559Z,81.00
2023-03-28T05:24:45.941Z,81.00
2023-03-28T05:27:12.378Z,81.00
2023-03-28T05:29:38.766Z,81.00
2023-03-28T05:32:05.351Z,80.90
2023-03-28T05:34:31.860Z,81.00
2023-03-28T05:36:58.327Z,81.00
2023-03-28T05:39:24.752Z,81.00
2023-03-28T05:41:51.146Z,81.00
2023-03-28T05:44:18.808Z,81.00
2023-03-28T05:46:45.354Z,81.00
2023-03-28T05:49:11.752Z,81.00
2023-03-28T05:51:38.185Z,81.00
2023-03-28T05:54:04.616Z,81.00
2023-03-28T05:56:31.019Z,80.90
2023-03-28T05:58:57.409Z,81.00
2023-03-28T06:01:24.134Z,81.00
2023-03-28T06:03:50.712Z,80.90
2023-03-28T06:06:17.114Z,80.80
2023-03-28T06:08:43.545Z,80.80
2023-03-28T06:11:09.931Z,80.80
2023-03-28T06:13:36.344Z,80.70
2023-03-28T06:16:02.727Z,80.70
2023-03-28T06:18:29.173Z,80.70
2023-03-28T06:20:55.629Z,80.60
2023-03-28T06:23:22.085Z,80.60
2023-03-28T06:25:48.535Z,80.70
2023-03-28T06:28:14.997Z,80.60
2023-03-28T06:30:41.417Z,80.50
2023-03-28T06:33:07.856Z,80.60
2023-03-28T06:35:34.299Z,80.60
2023-03-28T06:38:00.796Z,80.60
2023-03-28T06:40:27.264Z,80.50
2023-03-28T06:42:53.985Z,80.50
2023-03-28T06:45:20.372Z,80.40
2023-03-28T06:47:46.790Z,80.50
2023-03-28T06:50:13.257Z,80.40
2023-03-28T06:52:39.660Z,80.40
2023-03-28T06:55:06.142Z,80.30
2023-03-28T06:57:32.523Z,80.20
2023-03-28T06:59:59.063Z,80.10
2023-03-28T07:02:25.562Z,80.20
2023-03-28T07:04:52.101Z,80.00
2023-03-28T07:07:18.545Z,80.00
2023-03-28T07:09:44.947Z,79.90
2023-03-28T07:12:11.434Z,79.90
2023-03-28T07:14:37.809Z,80.00
2023-03-28T07:17:04.264Z,80.20
2023-03-28T07:19:30.708Z,80.20
2023-03-28T07:21:57.245Z,80.20
2023-03-28T07:24:23.695Z,80.30
2023-03-28T07:26:50.144Z,80.30
2023-03-28T07:29:16.583Z,80.30
2023-03-28T07:31:43.084Z,80.30
2023-03-28T07:34:09.711Z,80.20
2023-03-28T07:36:36.207Z,80.20
2023-03-28T07:39:02.655Z,80.20
2023-03-28T07:41:29.043Z,80.10
2023-03-28T07:43:55.445Z,80.10
2023-03-28T07:46:21.909Z,80.00
2023-03-28T07:48:48.396Z,80.00
2023-03-28T07:51:14.801Z,79.80
2023-03-28T07:53:41.214Z,79.60
2023-03-28T07:56:07.682Z,79.60
2023-03-28T07:58:34.155Z,79.50
2023-03-28T08:01:00.704Z,79.30
2023-03-28T08:03:27.701Z,79.20
2023-03-28T08:05:54.463Z,79.10
2023-03-28T08:08:21.016Z,79.00
2023-03-28T08:10:47.398Z,79.60
2023-03-28T08:13:13.807Z,78.70
2023-03-28T08:15:40.254Z,78.40
2023-03-28T08:18:06.751Z,78.10
2023-03-28T08:20:33.411Z,77.90
2023-03-28T08:22:59.848Z,77.70
2023-03-28T08:25:26.294Z,77.60
2023-03-28T08:27:52.734Z,77.30
2023-03-28T08:30:19.154Z,77.10
2023-03-28T08:32:48.237Z,76.30
2023-03-28T08:35:15.250Z,75.90
2023-03-28T08:37:41.633Z,75.90
2023-03-28T08:40:08.048Z,75.50
2023-03-28T08:42:34.412Z,75.10
2023-03-28T08:45:00.843Z,74.70
2023-03-28T08:47:27.638Z,74.30
2023-03-28T08:49:54.055Z,74.00
2023-03-28T08:52:20.426Z,73.30
2023-03-28T08:54:46.817Z,72.60
2023-03-28T08:57:13.278Z,71.50
2023-03-28T08:59:39.708Z,70.90
2023-03-28T09:02:07.751Z,70.00
2023-03-28T09:04:34.707Z,69.00
2023-03-28T09:07:01.145Z,67.90
2023-03-28T09:09:27.707Z,66.20
2023-03-28T09:11:54.086Z,65.20
2023-03-28T09:14:20.541Z,65.00
2023-03-28T09:16:47.047Z,64.00
2023-03-28T09:19:13.533Z,63.70
2023-03-28T09:21:39.941Z,64.70
2023-03-28T09:24:06.390Z,63.50
2023-03-28T09:26:32.802Z,63.60
2023-03-28T09:28:59.167Z,63.30
2023-03-28T09:31:27.041Z,62.90
2023-03-28T09:33:53.680Z,63.50
2023-03-28T09:36:20.139Z,62.60
2023-03-28T09:38:46.640Z,61.60
2023-03-28T09:41:13.062Z,62.00
2023-03-28T09:43:39.500Z,61.20
2023-03-28T09:46:06.021Z,60.80
2023-03-28T09:48:32.697Z,61.20
2023-03-28T09:50:59.544Z,61.20
2023-03-28T09:53:26.057Z,61.00
2023-03-28T09:56:03.435Z,61.20
2023-03-28T09:58:30.593Z,61.10
2023-03-28T10:00:57.034Z,61.30
2023-03-28T10:03:23.642Z,61.20
2023-03-28T10:05:50.209Z,60.90
2023-03-28T10:08:16.680Z,60.70
2023-03-28T10:10:43.093Z,60.90
2023-03-28T10:13:09.471Z,59.80
2023-03-28T10:15:35.963Z,59.20
2023-03-28T10:18:02.553Z,59.50
2023-03-28T10:20:29.136Z,59.10
2023-03-28T10:22:55.548Z,58.80
2023-03-28T10:25:22.236Z,58.70
2023-03-28T10:27:48.722Z,59.20
2023-03-28T10:30:15.320Z,59.00
2023-03-28T10:32:41.887Z,58.90
2023-03-28T10:35:08.367Z,57.90
2023-03-28T10:37:34.748Z,58.20
2023-03-28T10:40:01.181Z,58.20
2023-03-28T10:42:27.853Z,57.80
2023-03-28T10:44:54.424Z,57.80
2023-03-28T10:47:20.826Z,57.80
2023-03-28T10:49:47.317Z,56.00
2023-03-28T10:52:13.785Z,54.90
2023-03-28T10:54:40.225Z,55.40
2023-03-28T10:57:06.692Z,54.90
2023-03-28T10:59:33.355Z,54.20
2023-03-28T11:01:59.898Z,54.30
2023-03-28T11:04:26.350Z,54.20
2023-03-28T11:06:52.757Z,53.40
2023-03-28T11:09:19.185Z,53.70
2023-03-28T11:11:45.550Z,54.10
2023-03-28T11:14:12.014Z,54.50
2023-03-28T11:16:38.530Z,54.10
2023-03-28T11:19:05.018Z,54.10
2023-03-28T11:21:31.465Z,53.80
2023-03-28T11:23:57.917Z,53.70
2023-03-28T11:26:24.592Z,53.90
2023-03-28T11:28:50.974Z,53.40
2023-03-28T11:31:17.465Z,53.50
2023-03-28T11:33:43.972Z,53.30
2023-03-28T11:36:10.422Z,53.40
2023-03-28T11:38:36.804Z,52.90
2023-03-28T11:41:03.261Z,53.00
2023-03-28T11:43:29.701Z,52.80
2023-03-28T11:45:56.177Z,52.60
2023-03-28T11:48:22.643Z,51.00
2023-03-28T11:50:49.042Z,51.70
2023-03-28T11:53:15.439Z,51.90
2023-03-28T11:55:41.834Z,51.90
2023-03-28T11:58:08.277Z,51.50
2023-03-28T12:00:34.927Z,51.70
2023-03-28T12:03:01.666Z,51.50
2023-03-28T12:05:28.197Z,51.20
2023-03-28T12:07:54.735Z,51.10
2023-03-28T12:10:21.158Z,51.20
2023-03-28T12:12:47.572Z,51.30
2023-03-28T12:15:13.986Z,51.20
2023-03-28T12:17:40.480Z,50.80
2023-03-28T12:20:06.931Z,50.30
2023-03-28T12:22:33.408Z,50.30
2023-03-28T12:24:59.846Z,50.50
2023-03-28T12:27:26.291Z,51.00
2023-03-28T12:29:52.730Z,51.00
2023-03-28T12:32:19.191Z,50.80
2023-03-28T12:34:45.666Z,51.20
2023-03-28T12:37:12.107Z,51.10
2023-03-28T12:39:38.586Z,51.20
2023-03-28T12:42:05.086Z,51.50
2023-03-28T12:44:31.481Z,51.70
2023-03-28T12:46:57.941Z,51.50
2023-03-28T12:49:24.720Z,51.60
2023-03-28T12:51:51.120Z,51.60
2023-03-28T12:54:17.500Z,51.30
2023-03-28T12:56:43.904Z,51.30
2023-03-28T12:59:10.307Z,50.90
2023-03-28T13:01:36.772Z,50.90
2023-03-28T13:04:03.251Z,50.80
2023-03-28T13:06:29.686Z,50.50
2023-03-28T13:08:56.138Z,50.20
2023-03-28T13:11:22.620Z,49.90
2023-03-28T13:13:49.025Z,49.80
2023-03-28T13:16:15.539Z,50.10
2023-03-28T13:18:41.990Z,50.10
2023-03-28T13:21:08.391Z,50.20
2023-03-28T13:23:34.844Z,50.40
2023-03-28T13:26:01.468Z,50.70
2023-03-28T13:28:28.091Z,50.80
2023-03-28T13:30:54.739Z,50.70
2023-03-28T13:33:21.151Z,50.90
2023-03-28T13:35:47.648Z,51.20
2023-03-28T13:38:14.068Z,51.30
2023-03-28T13:40:40.507Z,51.30
2023-03-28T13:43:06.938Z,51.00
2023-03-28T13:45:33.437Z,51.00
2023-03-28T13:48:12.139Z,51.00
2023-03-28T13:50:39.810Z,51.20
2023-03-28T13:53:06.249Z,51.50
2023-03-28T13:55:32.690Z,50.90
2023-03-28T13:57:59.190Z,51.10
2023-03-28T14:00:25.649Z,50.80
2023-03-28T14:02:52.380Z,50.80
2023-03-28T14:05:18.889Z,50.70
2023-03-28T14:07:45.333Z,50.80
2023-03-28T14:10:11.721Z,51.00
2023-03-28T14:12:38.116Z,51.80
2023-03-28T14:15:04.525Z,51.00
2023-03-28T14:17:31.001Z,50.90
2023-03-28T14:19:57.735Z,51.10
2023-03-28T14:22:24.177Z,51.30
2023-03-28T14:24:50.616Z,51.20
2023-03-28T14:27:17.061Z,50.60
2023-03-28T14:29:43.496Z,51.10
2023-03-28T14:32:09.942Z,51.30
2023-03-28T14:34:36.416Z,51.50
2023-03-28T14:37:02.839Z,51.60
2023-03-28T14:39:29.272Z,51.70
2023-03-28T14:41:55.683Z,51.40
2023-03-28T14:44:22.239Z,51.60
2023-03-28T14:46:48.674Z,51.60
2023-03-28T14:49:15.072Z,51.70
2023-03-28T14:51:41.496Z,51.70
2023-03-28T14:54:07.947Z,51.40
2023-03-28T14:56:34.398Z,51.60
2023-03-28T14:59:00.831Z,51.40
2023-03-28T15:01:27.222Z,51.50
2023-03-28T15:03:53.861Z,51.40
2023-03-28T15:06:20.453Z,51.50
2023-03-28T15:08:46.876Z,51.50
2023-03-28T15:11:13.286Z,51.40
2023-03-28T15:13:39.707Z,51.30
2023-03-28T15:16:06.243Z,51.20
2023-03-28T15:18:32.927Z,51.10
2023-03-28T15:20:59.675Z,51.10
2023-03-28T15:23:26.282Z,51.20
2023-03-28T15:25:52.681Z,51.10
2023-03-28T15:28:19.067Z,51.30
2023-03-28T15:30:45.457Z,51.40
2023-03-28T15:33:11.905Z,51.50
2023-03-28T15:35:38.428Z,51.30
2023-03-28T15:38:04.956Z,51.30
2023-03-28T15:40:31.440Z,50.80
2023-03-28T15:42:57.947Z,50.80
2023-03-28T15:45:24.574Z,50.90
2023-03-28T15:47:51.149Z,51.00
2023-03-28T15:50:17.639Z,51.00
2023-03-28T15:52:44.062Z,51.00
2023-03-28T15:55:10.513Z,50.90
2023-03-28T15:57:36.913Z,50.90
2023-03-28T16:00:03.396Z,51.30
2023-03-28T16:02:29.880Z,51.40
2023-03-28T16:04:56.352Z,51.60
2023-03-28T16:07:22.760Z,51.70
2023-03-28T16:09:49.150Z,51.70
2023-03-28T16:12:15.577Z,51.80
2023-03-28T16:14:41.948Z,51.90
2023-03-28T16:17:08.393Z,51.90
2023-03-28T16:19:37.914Z,52.00
2023-03-28T16:22:04.321Z,52.20
2023-03-28T16:24:30.724Z,52.20
2023-03-28T16:26:57.116Z,52.30
2023-03-28T16:29:23.760Z,52.40
2023-03-28T16:31:50.265Z,52.30
2023-03-28T16:34:16.702Z,52.10
2023-03-28T16:36:43.116Z,52.10
2023-03-28T16:39:09.598Z,52.40
2023-03-28T16:41:35.995Z,52.50
2023-03-28T16:44:02.390Z,52.60
2023-03-28T16:46:28.875Z,52.70
2023-03-28T16:48:55.396Z,52.60
2023-03-28T16:51:21.839Z,52.80
2023-03-28T16:53:48.282Z,52.90
2023-03-28T16:56:14.700Z,52.90
2023-03-28T16:58:41.182Z,52.90
2023-03-28T17:01:07.682Z,53.60
2023-03-28T17:03:34.251Z,52.90
2023-03-28T17:06:01.097Z,53.00
2023-03-28T17:08:27.812Z,53.00
2023-03-28T17:10:54.210Z,53.10
2023-03-28T17:13:20.650Z,53.30
2023-03-28T17:15:47.143Z,53.40
2023-03-28T17:18:13.615Z,53.40
2023-03-28T17:20:40.096Z,53.40
2023-03-28T17:23:06.497Z,53.50
2023-03-28T17:25:41.729Z,53.60
2023-03-28T17:28:11.267Z,53.70
2023-03-28T17:30:37.767Z,53.80
2023-03-28T17:33:04.534Z,53.90
2023-03-28T17:35:31.082Z,54.00
2023-03-28T17:37:57.791Z,54.10
2023-03-28T17:40:24.196Z,54.00
2023-03-28T17:42:50.600Z,54.10
2023-03-28T17:45:16.978Z,54.30
2023-03-28T17:47:43.382Z,54.40
2023-03-28T17:50:09.988Z,54.60
2023-03-28T17:52:36.441Z,54.70
2023-03-28T17:55:02.928Z,54.80
2023-03-28T17:57:29.384Z,55.00
2023-03-28T17:59:55.818Z,55.10
2023-03-28T18:02:22.254Z,55.20
2023-03-28T18:04:48.740Z,55.30
2023-03-28T18:07:15.596Z,55.50
2023-03-28T18:09:43.441Z,55.50
2023-03-28T18:12:09.880Z,55.60
2023-03-28T18:14:36.311Z,55.70
2023-03-28T18:17:02.675Z,55.70
2023-03-28T18:19:29.114Z,55.80
2023-03-28T18:21:55.507Z,56.00
2023-03-28T18:24:21.888Z,56.10
2023-03-28T18:26:48.325Z,56.10
2023-03-28T18:29:14.726Z,56.10
2023-03-28T18:31:41.178Z,56.10
2023-03-28T18:34:07.682Z,56.20
2023-03-28T18:36:34.160Z,56.30
2023-03-28T18:39:00.686Z,56.40
2023-03-28T18:41:27.168Z,56.60
2023-03-28T18:43:53.784Z,56.70
2023-03-28T18:46:20.297Z,56.90
2023-03-28T18:48:46.699Z,57.00
2023-03-28T18:51:13.112Z,57.10
2023-03-28T18:53:39.492Z,57.10
2023-03-28T18:56:05.931Z,57.10
2023-03-28T18:58:32.498Z,57.10
2023-03-28T19:00:59.090Z,57.20
2023-03-28T19:03:25.881Z,57.20
2023-03-28T19:05:52.375Z,57.40
2023-03-28T19:08:18.828Z,57.40
2023-03-28T19:10:45.215Z,57.50
2023-03-28T19:13:11.612Z,57.50
2023-03-28T19:15:37.993Z,57.60
2023-03-28T19:18:04.538Z,57.80
2023-03-28T19:20:31.051Z,57.80
2023-03-28T19:22:57.789Z,57.90
2023-03-28T19:25:24.249Z,58.10
2023-03-28T19:27:50.682Z,58.30
2023-03-28T19:30:17.123Z,58.40
2023-03-28T19:32:43.549Z,58.60
2023-03-28T19:35:09.970Z,58.60
2023-03-28T19:37:36.432Z,58.80
2023-03-28T19:40:02.865Z,59.00
2023-03-28T19:42:29.330Z,59.20
2023-03-28T19:44:55.737Z,59.50
2023-03-28T19:47:22.111Z,59.90
2023-03-28T19:49:48.525Z,60.20
2023-03-28T19:52:14.901Z,60.50
2023-03-28T19:54:41.354Z,61.40
2023-03-28T19:57:08.445Z,61.00
2023-03-28T19:59:35.044Z,61.20
2023-03-28T20:02:01.622Z,61.40
2023-03-28T20:04:28.243Z,61.40
2023-03-28T20:06:54.823Z,61.50
2023-03-28T20:09:21.226Z,61.70
2023-03-28T20:11:47.632Z,62.50
2023-03-28T20:14:14.035Z,62.00
2023-03-28T20:16:40.500Z,62.40
2023-03-28T20:19:06.908Z,62.60
2023-03-28T20:21:33.515Z,62.90
2023-03-28T20:23:59.920Z,63.10
2023-03-28T20:26:26.331Z,63.40
2023-03-28T20:28:52.798Z,63.60
2023-03-28T20:31:19.331Z,63.90
2023-03-28T20:33:45.869Z,64.20
2023-03-28T20:36:12.302Z,64.50
2023-03-28T20:38:38.707Z,64.90
2023-03-28T20:41:05.184Z,65.20
2023-03-28T20:43:31.614Z,65.20
2023-03-28T20:45:58.053Z,65.30
2023-03-28T20:48:24.588Z,65.70
2023-03-28T20:50:51.042Z,65.70
2023-03-28T20:53:17.498Z,65.80
2023-03-28T20:55:43.970Z,66.00
2023-03-28T20:58:10.366Z,66.10
2023-03-28T21:00:36.786Z,66.30
2023-03-28T21:03:03.314Z,66.30
2023-03-28T21:05:29.899Z,66.30
2023-03-28T21:07:56.376Z,66.40
2023-03-28T21:10:22.910Z,66.70
2023-03-28T21:12:49.355Z,66.80
2023-03-28T21:15:15.823Z,66.80
2023-03-28T21:17:42.301Z,66.90
2023-03-28T21:20:08.701Z,67.00
2023-03-28T21:22:35.251Z,67.10
2023-03-28T21:25:01.714Z,67.30
2023-03-28T21:27:28.235Z,67.20
2023-03-28T21:29:54.884Z,67.20
2023-03-28T21:32:21.340Z,67.20
2023-03-28T21:34:47.800Z,67.30
2023-03-28T21:37:14.209Z,67.40
2023-03-28T21:39:40.671Z,67.60
2023-03-28T21:42:07.077Z,67.70
2023-03-28T21:44:33.550Z,67.70
2023-03-28T21:47:00.048Z,67.80
2023-03-28T21:49:26.517Z,67.90
2023-03-28T21:51:52.973Z,68.00
2023-03-28T21:54:19.435Z,68.10
2023-03-28T21:56:45.961Z,68.30
2023-03-28T21:59:12.426Z,68.70
2023-03-28T22:01:38.906Z,69.00
2023-03-28T22:04:05.386Z,69.10
2023-03-28T22:06:31.871Z,69.30
2023-03-28T22:08:58.358Z,69.60
2023-03-28T22:11:24.955Z,69.70
2023-03-28T22:13:51.410Z,69.90
2023-03-28T22:16:17.953Z,69.90
2023-03-28T22:18:44.470Z,70.00
2023-03-28T22:21:10.962Z,70.10
2023-03-28T22:23:37.396Z,70.20
2023-03-28T22:26:03.853Z,70.30
2023-03-28T22:28:30.299Z,70.40
2023-03-28T22:30:58.452Z,70.40
2023-03-28T22:33:25.018Z,70.50
2023-03-28T22:35:51.577Z,70.50
2023-03-28T22:38:18.083Z,70.50
2023-03-28T22:40:44.497Z,70.70
2023-03-28T22:43:10.971Z,70.80
2023-03-28T22:45:37.353Z,70.90
2023-03-28T22:48:03.870Z,71.00
2023-03-28T22:50:30.416Z,71.10
2023-03-28T22:52:56.830Z,71.30
2023-03-28T22:55:23.267Z,71.30
2023-03-28T22:57:49.724Z,71.40
2023-03-28T23:00:16.165Z,71.50
2023-03-28T23:02:42.659Z,71.50
2023-03-28T23:05:09.220Z,71.60
2023-03-28T23:07:35.694Z,71.70
2023-03-28T23:10:02.099Z,72.00
2023-03-28T23:12:28.746Z,72.20
2023-03-28T23:14:55.174Z,72.50
2023-03-28T23:17:21.613Z,72.60
2023-03-28T23:19:49.908Z,72.70
2023-03-28T23:22:16.634Z,72.80
2023-03-28T23:24:43.070Z,72.90
2023-03-28T23:27:09.511Z,73.10
2023-03-28T23:29:35.992Z,73.30
2023-03-28T23:32:02.621Z,73.40
2023-03-28T23:34:29.191Z,73.40
2023-03-28T23:36:55.602Z,73.50
2023-03-28T23:39:21.990Z,73.60
2023-03-28T23:41:48.388Z,73.70
2023-03-28T23:44:14.804Z,73.80
2023-03-28T23:46:41.250Z,73.90
2023-03-28T23:49:07.646Z,74.00
2023-03-28T23:51:34.121Z,74.10
2023-03-28T23:54:00.533Z,74.10
2023-03-28T23:56:26.936Z,74.20
2023-03-28T23:58:53.304Z,74.20
